createdAt,value
2023-05-12T00:02:27.024Z,5.72
2023-05-12T00:04:55.201Z,6.38
2023-05-12T00:07:23.021Z,6.25
2023-05-12T00:09:50.810Z,6.00
2023-05-12T00:12:20.057Z,5.85
2023-05-12T00:14:47.990Z,5.60
2023-05-12T00:17:15.744Z,5.65
2023-05-12T00:19:44.392Z,6.03
2023-05-12T00:22:12.466Z,5.50
2023-05-12T00:24:40.818Z,5.50
2023-05-12T00:27:08.618Z,6.00
2023-05-12T00:29:37.873Z,6.43
2023-05-12T00:32:07.157Z,5.25
2023-05-12T00:34:34.939Z,5.45
2023-05-12T00:37:02.729Z,5.22
2023-05-12T00:39:30.602Z,5.05
2023-05-12T00:41:59.180Z,4.90
2023-05-12T00:44:27.040Z,4.65
2023-05-12T00:46:56.168Z,5.63
2023-05-12T00:49:26.876Z,4.75
2023-05-12T00:51:55.773Z,4.15
2023-05-12T00:54:23.934Z,3.80
2023-05-12T00:56:52.332Z,4.28
2023-05-12T00:59:20.334Z,4.13
2023-05-12T01:01:49.646Z,4.07
2023-05-12T01:04:18.931Z,3.88
2023-05-12T01:06:50.937Z,3.90
2023-05-12T01:09:19.244Z,3.65
2023-05-12T01:11:47.333Z,3.50
2023-05-12T01:14:15.085Z,4.43
2023-05-12T01:16:49.399Z,4.20
2023-05-12T01:19:33.716Z,4.03
2023-05-12T01:22:02.316Z,3.88
2023-05-12T01:24:34.266Z,4.35
2023-05-12T01:27:04.496Z,4.40
2023-05-12T01:29:33.593Z,4.35
2023-05-12T01:32:01.785Z,4.15
2023-05-12T01:34:29.591Z,4.70
2023-05-12T01:36:57.354Z,4.40
2023-05-12T01:39:25.154Z,3.83
2023-05-12T01:41:52.971Z,4.03
2023-05-12T01:44:22.125Z,3.90
2023-05-12T01:46:50.169Z,4.50
2023-05-12T01:49:17.989Z,4.75
2023-05-12T01:51:45.736Z,4.25
2023-05-12T01:54:13.522Z,4.15
2023-05-12T01:56:41.437Z,4.18
2023-05-12T01:59:09.694Z,5.05
2023-05-12T02:01:38.924Z,4.28
2023-05-12T02:04:09.256Z,4.55
2023-05-12T02:06:37.431Z,4.32
2023-05-12T02:09:05.523Z,4.50
2023-05-12T02:11:33.358Z,4.18
2023-05-12T02:14:01.128Z,4.85
2023-05-12T02:16:28.992Z,4.55
2023-05-12T02:18:58.292Z,4.00
2023-05-12T02:21:26.297Z,4.20
2023-05-12T02:23:54.140Z,4.30
2023-05-12T02:26:22.091Z,3.78
2023-05-12T02:28:49.899Z,3.85
2023-05-12T02:31:17.741Z,3.55
2023-05-12T02:33:45.483Z,3.70
2023-05-12T02:36:14.633Z,3.47
2023-05-12T02:38:42.496Z,3.40
2023-05-12T02:41:10.372Z,3.22
2023-05-12T02:43:38.169Z,3.60
2023-05-12T02:46:06.095Z,2.92
2023-05-12T02:48:33.960Z,3.17
2023-05-12T02:51:01.778Z,3.28
2023-05-12T02:53:31.086Z,2.85
2023-05-12T02:55:59.055Z,3.20
2023-05-12T02:58:26.976Z,2.72
2023-05-12T03:01:06.794Z,2.25
2023-05-12T03:03:38.633Z,2.60
2023-05-12T03:06:07.222Z,2.67
2023-05-12T03:08:36.624Z,2.83
2023-05-12T03:11:04.528Z,2.58
2023-05-12T03:13:32.316Z,2.60
2023-05-12T03:16:01.686Z,2.63
2023-05-12T03:18:29.995Z,2.30
2023-05-12T03:20:57.957Z,2.38
2023-05-12T03:23:25.769Z,2.45
2023-05-12T03:25:55.476Z,2.22
2023-05-12T03:28:24.850Z,1.88
2023-05-12T03:30:52.665Z,2.42
2023-05-12T03:33:20.496Z,2.00
2023-05-12T03:35:48.319Z,1.52
2023-05-12T03:38:16.093Z,2.05
2023-05-12T03:40:43.884Z,1.75
2023-05-12T03:43:13.038Z,2.20
2023-05-12T03:45:40.890Z,2.25
2023-05-12T03:48:08.850Z,1.80
2023-05-12T03:50:36.744Z,1.83
2023-05-12T03:53:04.539Z,1.85
2023-05-12T03:55:32.321Z,1.75
2023-05-12T03:58:00.224Z,2.50
2023-05-12T04:00:29.529Z,2.47
2023-05-12T04:02:57.404Z,2.72
2023-05-12T04:05:25.365Z,2.45
2023-05-12T04:07:53.320Z,2.85
2023-05-12T04:10:21.551Z,3.20
2023-05-12T04:12:49.440Z,3.28
2023-05-12T04:15:17.653Z,3.33
2023-05-12T04:17:46.858Z,3.15
2023-05-12T04:20:14.672Z,3.72
2023-05-12T04:22:42.427Z,3.47
2023-05-12T04:25:11.050Z,3.58
2023-05-12T04:27:38.984Z,3.17
2023-05-12T04:30:08.186Z,3.85
2023-05-12T04:32:36.376Z,3.25
2023-05-12T04:35:06.201Z,3.80
2023-05-12T04:37:34.482Z,3.88
2023-05-12T04:40:02.558Z,3.88
2023-05-12T04:42:30.487Z,4.43
2023-05-12T04:44:58.282Z,4.25
2023-05-12T04:47:26.097Z,4.55
2023-05-12T04:49:53.877Z,4.50
2023-05-12T04:52:24.778Z,4.20
2023-05-12T04:54:53.370Z,4.43
2023-05-12T04:57:24.158Z,4.63
2023-05-12T04:59:51.943Z,5.20
2023-05-12T05:02:19.778Z,5.22
2023-05-12T05:04:47.607Z,4.43
2023-05-12T05:07:15.403Z,5.18
2023-05-12T05:09:44.521Z,5.05
2023-05-12T05:12:12.379Z,5.97
2023-05-12T05:14:40.168Z,6.25
2023-05-12T05:17:08.168Z,6.30
2023-05-12T05:19:49.760Z,6.40
2023-05-12T05:22:22.529Z,6.60
2023-05-12T05:24:51.985Z,7.00
2023-05-12T05:27:20.000Z,8.68
2023-05-12T05:29:47.791Z,8.77
2023-05-12T05:32:15.815Z,8.73
2023-05-12T05:34:43.665Z,9.48
2023-05-12T05:37:11.625Z,8.43
2023-05-12T05:39:39.448Z,9.35
2023-05-12T05:42:08.804Z,9.85
2023-05-12T05:44:36.595Z,9.77
2023-05-12T05:47:04.461Z,10.48
2023-05-12T05:49:32.369Z,11.00
2023-05-12T05:52:00.210Z,9.75
2023-05-12T05:54:28.004Z,11.20
2023-05-12T05:56:56.043Z,10.82
2023-05-12T05:59:25.513Z,11.82
2023-05-12T06:01:53.503Z,12.15
2023-05-12T06:04:21.368Z,11.88
2023-05-12T06:06:49.454Z,12.48
2023-05-12T06:09:17.333Z,13.93
2023-05-12T06:11:45.076Z,11.80
2023-05-12T06:14:12.868Z,13.38
2023-05-12T06:16:42.138Z,14.07
2023-05-12T06:19:10.603Z,13.20
2023-05-12T06:21:38.688Z,13.43
2023-05-12T06:24:06.840Z,13.55
2023-05-12T06:26:34.759Z,13.63
2023-05-12T06:29:02.610Z,12.85
2023-05-12T06:31:30.499Z,11.52
2023-05-12T06:33:59.765Z,13.75
2023-05-12T06:36:28.860Z,12.80
2023-05-12T06:38:56.743Z,11.30
2023-05-12T06:41:25.342Z,13.15
2023-05-12T06:43:53.463Z,12.02
2023-05-12T06:46:21.266Z,12.98
2023-05-12T06:48:49.167Z,13.02
2023-05-12T06:51:18.595Z,13.02
2023-05-12T06:53:46.402Z,13.38
2023-05-12T06:56:16.968Z,14.02
2023-05-12T06:58:44.846Z,11.77
2023-05-12T07:01:12.864Z,13.95
2023-05-12T07:03:40.684Z,13.15
2023-05-12T07:06:08.860Z,11.32
2023-05-12T07:08:37.970Z,12.45
2023-05-12T07:11:05.810Z,11.43
2023-05-12T07:13:33.626Z,10.77
2023-05-12T07:16:01.570Z,10.57
2023-05-12T07:18:29.348Z,11.73
2023-05-12T07:20:57.437Z,10.70
2023-05-12T07:23:25.276Z,9.98
2023-05-12T07:25:54.426Z,9.85
2023-05-12T07:28:22.225Z,10.20
2023-05-12T07:30:50.142Z,8.48
2023-05-12T07:33:17.974Z,9.20
2023-05-12T07:35:47.001Z,8.10
2023-05-12T07:38:15.458Z,7.90
2023-05-12T07:40:43.252Z,7.07
2023-05-12T07:43:12.411Z,7.45
2023-05-12T07:45:40.326Z,6.85
2023-05-12T07:48:08.142Z,6.05
2023-05-12T07:50:36.140Z,6.22
2023-05-12T07:53:04.425Z,5.85
2023-05-12T07:55:33.452Z,5.53
2023-05-12T07:58:01.375Z,5.25
2023-05-12T08:00:30.581Z,4.88
2023-05-12T08:02:58.763Z,4.90
2023-05-12T08:05:26.852Z,4.97
2023-05-12T08:07:54.671Z,3.95
2023-05-12T08:10:26.675Z,4.22
2023-05-12T08:12:54.631Z,3.50
2023-05-12T08:15:22.670Z,3.53
2023-05-12T08:17:52.095Z,3.92
2023-05-12T08:20:20.333Z,4.00
2023-05-12T08:22:48.377Z,3.17
2023-05-12T08:25:16.221Z,3.70
2023-05-12T08:27:44.013Z,3.60
2023-05-12T08:30:12.806Z,3.05
2023-05-12T08:32:40.833Z,3.30
2023-05-12T08:35:10.180Z,2.95
2023-05-12T08:37:38.022Z,2.85
2023-05-12T08:40:14.895Z,3.15
2023-05-12T08:42:45.117Z,2.78
2023-05-12T08:45:13.120Z,3.00
2023-05-12T08:47:42.759Z,2.70
2023-05-12T08:50:15.229Z,2.80
2023-05-12T08:52:43.055Z,3.05
2023-05-12T08:55:11.852Z,2.33
2023-05-12T08:57:40.056Z,2.78
2023-05-12T09:00:10.024Z,2.70
2023-05-12T09:02:51.989Z,2.17
2023-05-12T09:05:24.231Z,2.80
2023-05-12T09:07:54.872Z,2.53
2023-05-12T09:10:34.251Z,2.30
2023-05-12T09:13:05.740Z,2.38
2023-05-12T09:15:38.490Z,2.53
2023-05-12T09:18:06.561Z,2.17
2023-05-12T09:20:36.460Z,2.55
2023-05-12T09:23:14.806Z,2.20
2023-05-12T09:25:44.140Z,2.33
2023-05-12T09:28:12.942Z,2.20
2023-05-12T09:30:42.499Z,2.10
2023-05-12T09:33:11.771Z,2.28
2023-05-12T09:35:45.627Z,2.20
2023-05-12T09:38:15.151Z,2.40
2023-05-12T09:40:43.468Z,2.17
2023-05-12T09:43:15.148Z,2.13
2023-05-12T09:45:44.199Z,2.53
2023-05-12T09:48:14.277Z,2.10
2023-05-12T09:50:48.852Z,2.08
2023-05-12T09:53:19.412Z,2.13
2023-05-12T09:55:48.575Z,2.20
2023-05-12T09:58:18.259Z,2.08
2023-05-12T10:03:21.832Z,1.83
2023-05-12T10:05:55.515Z,1.90
2023-05-12T10:08:28.365Z,2.00
2023-05-12T10:10:57.700Z,2.15
2023-05-12T10:13:26.307Z,2.00
2023-05-12T10:15:57.198Z,1.90
2023-05-12T10:18:25.373Z,2.00
2023-05-12T10:20:55.294Z,1.88
2023-05-12T10:23:24.518Z,2.05
2023-05-12T10:25:54.272Z,1.95
2023-05-12T10:28:22.563Z,2.25
2023-05-12T10:30:52.179Z,2.30
2023-05-12T10:33:20.042Z,2.10
2023-05-12T10:35:49.462Z,1.83
2023-05-12T10:38:20.016Z,1.85
2023-05-12T10:40:55.901Z,1.83
2023-05-12T10:43:24.938Z,2.08
2023-05-12T10:46:12.046Z,1.80
2023-05-12T10:51:21.848Z,1.92
2023-05-12T10:53:55.087Z,2.20
2023-05-12T10:56:24.645Z,2.35
2023-05-12T10:59:17.225Z,2.00
2023-05-12T11:02:03.971Z,2.28
2023-05-12T11:04:43.049Z,1.70
2023-05-12T11:07:13.777Z,2.05
2023-05-12T11:09:53.755Z,2.38
2023-05-12T11:12:27.602Z,2.17
2023-05-12T11:14:55.558Z,1.80
2023-05-12T11:17:23.471Z,1.95
2023-05-12T11:19:52.737Z,2.33
2023-05-12T11:22:22.126Z,2.00
2023-05-12T11:24:53.117Z,1.98
2023-05-12T11:27:23.518Z,1.90
2023-05-12T11:29:58.934Z,1.70
2023-05-12T11:32:26.880Z,2.00
2023-05-12T11:34:54.857Z,1.90
2023-05-12T11:37:23.597Z,1.65
2023-05-12T11:39:53.777Z,2.35
2023-05-12T11:42:25.060Z,2.55
2023-05-12T11:44:55.541Z,1.67
2023-05-12T11:47:23.454Z,2.00
2023-05-12T11:49:52.507Z,1.90
2023-05-12T11:52:22.169Z,2.30
2023-05-12T11:54:51.628Z,1.85
2023-05-12T11:57:28.353Z,2.10
2023-05-12T12:00:00.369Z,1.95
2023-05-12T12:02:28.869Z,2.10
2023-05-12T12:04:57.061Z,1.80
2023-05-12T12:07:32.676Z,2.45
2023-05-12T12:10:01.905Z,2.13
2023-05-12T12:12:31.131Z,1.95
2023-05-12T12:15:00.281Z,2.00
2023-05-12T12:17:30.920Z,2.70
2023-05-12T12:19:59.216Z,2.40
2023-05-12T12:22:27.288Z,2.45
2023-05-12T12:24:55.238Z,2.60
2023-05-12T12:27:23.006Z,2.08
2023-05-12T12:29:52.175Z,3.38
2023-05-12T12:32:19.994Z,2.80
2023-05-12T12:34:49.145Z,2.90
2023-05-12T12:37:17.390Z,2.42
2023-05-12T12:39:45.435Z,2.45
2023-05-12T12:42:13.410Z,2.20
2023-05-12T12:44:41.259Z,2.47
2023-05-12T12:47:10.631Z,2.67
2023-05-12T12:49:38.541Z,2.47
2023-05-12T12:52:07.252Z,2.35
2023-05-12T12:54:35.570Z,2.30
2023-05-12T12:57:04.174Z,2.15
2023-05-12T12:59:32.295Z,2.28
2023-05-12T13:02:01.500Z,2.63
2023-05-12T13:04:30.708Z,2.30
2023-05-12T13:06:58.559Z,2.83
2023-05-12T13:09:26.320Z,2.80
2023-05-12T13:11:54.154Z,2.78
2023-05-12T13:14:21.973Z,3.38
2023-05-12T13:16:49.905Z,2.08
2023-05-12T13:19:17.705Z,2.08
2023-05-12T13:21:46.944Z,3.00
2023-05-12T13:24:14.760Z,2.45
2023-05-12T13:26:42.497Z,2.25
2023-05-12T13:29:10.318Z,2.13
2023-05-12T13:31:38.803Z,2.30
2023-05-12T13:34:06.600Z,2.63
2023-05-12T13:36:34.770Z,2.85
2023-05-12T13:39:04.027Z,2.88
2023-05-12T13:41:31.827Z,2.58
2023-05-12T13:43:59.686Z,2.70
2023-05-12T13:46:27.688Z,2.30
2023-05-12T13:48:55.503Z,3.03
2023-05-12T13:51:23.942Z,2.97
2023-05-12T13:53:51.737Z,2.67
2023-05-12T13:56:21.182Z,2.70
2023-05-12T13:58:49.142Z,2.30
2023-05-12T14:01:17.088Z,2.50
2023-05-12T14:03:45.641Z,2.55
2023-05-12T14:06:13.570Z,2.63
2023-05-12T14:08:41.886Z,2.67
2023-05-12T14:11:10.093Z,2.50
2023-05-12T14:13:39.406Z,2.38
2023-05-12T14:16:08.028Z,2.60
2023-05-12T14:18:36.143Z,2.30
2023-05-12T14:21:04.255Z,2.40
2023-05-12T14:23:32.145Z,2.50
2023-05-12T14:25:59.984Z,2.25
2023-05-12T14:28:28.980Z,2.53
2023-05-12T14:30:58.312Z,2.40
2023-05-12T14:33:26.152Z,2.00
2023-05-12T14:36:05.925Z,2.22
2023-05-12T14:38:35.756Z,2.22
2023-05-12T14:41:04.016Z,2.53
2023-05-12T14:43:31.890Z,2.30
2023-05-12T14:46:02.475Z,2.42
2023-05-12T14:48:30.454Z,2.90
2023-05-12T14:50:58.790Z,2.45
2023-05-12T14:53:26.734Z,2.60
2023-05-12T14:55:54.515Z,2.58
2023-05-12T14:58:24.376Z,3.25
2023-05-12T15:00:52.496Z,2.92
2023-05-12T15:03:21.903Z,2.85
2023-05-12T15:08:21.583Z,2.40
2023-05-12T15:10:50.047Z,2.40
2023-05-12T15:13:20.230Z,2.20
2023-05-12T15:15:48.304Z,2.28
2023-05-12T15:18:16.369Z,2.40
2023-05-12T15:20:46.010Z,2.85
2023-05-12T15:23:13.851Z,2.30
2023-05-12T15:25:41.997Z,2.20
2023-05-12T15:28:09.808Z,2.45
2023-05-12T15:30:37.631Z,2.33
2023-05-12T15:33:06.214Z,2.20
2023-05-12T15:35:34.772Z,4.10
2023-05-12T15:38:04.074Z,2.80
2023-05-12T15:40:31.869Z,2.60
2023-05-12T15:42:59.665Z,2.55
2023-05-12T15:45:27.892Z,2.58
2023-05-12T15:47:56.825Z,3.10
2023-05-12T15:50:24.898Z,2.22
2023-05-12T15:52:52.722Z,2.50
2023-05-12T15:55:22.296Z,2.35
2023-05-12T15:57:50.999Z,3.55
2023-05-12T16:00:20.786Z,2.78
2023-05-12T16:02:49.817Z,2.80
2023-05-12T16:05:18.009Z,2.50
2023-05-12T16:07:45.930Z,2.75
2023-05-12T16:10:13.742Z,2.70
2023-05-12T16:12:42.905Z,2.97
2023-05-12T16:15:11.960Z,2.80
2023-05-12T16:17:39.731Z,2.38
2023-05-12T16:20:09.197Z,2.70
2023-05-12T16:22:37.700Z,3.30
2023-05-12T16:25:06.361Z,2.35
2023-05-12T16:27:35.690Z,2.40
2023-05-12T16:30:05.900Z,2.72
2023-05-12T16:32:33.877Z,2.60
2023-05-12T16:35:01.673Z,1.95
2023-05-12T16:37:29.468Z,2.20
2023-05-12T16:39:57.258Z,2.13
2023-05-12T16:42:25.531Z,2.10
2023-05-12T16:44:54.560Z,2.20
2023-05-12T16:47:24.021Z,2.13
2023-05-12T16:49:53.223Z,2.15
2023-05-12T16:52:21.119Z,2.22
2023-05-12T16:54:48.924Z,2.47
2023-05-12T16:57:16.701Z,1.98
2023-05-12T16:59:44.520Z,2.00
2023-05-12T17:02:12.423Z,1.67
2023-05-12T17:04:41.577Z,1.65
2023-05-12T17:07:09.706Z,2.03
2023-05-12T17:09:37.906Z,2.45
2023-05-12T17:12:06.922Z,1.75
2023-05-12T17:14:35.250Z,1.90
2023-05-12T17:17:03.397Z,2.05
2023-05-12T17:19:31.247Z,1.45
2023-05-12T17:22:00.514Z,1.80
2023-05-12T17:24:29.110Z,1.80
2023-05-12T17:26:57.642Z,1.70
2023-05-12T17:29:25.450Z,1.90
2023-05-12T17:31:53.684Z,1.88
2023-05-12T17:34:21.488Z,1.77
2023-05-12T17:36:49.276Z,2.15
2023-05-12T17:39:18.461Z,2.65
2023-05-12T17:41:47.232Z,2.55
2023-05-12T17:44:15.453Z,2.22
2023-05-12T17:46:43.421Z,2.17
2023-05-12T17:49:11.282Z,2.70
2023-05-12T17:51:39.222Z,2.70
2023-05-12T17:54:07.126Z,2.30
2023-05-12T17:56:36.538Z,2.13
2023-05-12T17:59:04.365Z,2.20
2023-05-12T18:01:32.183Z,2.28
2023-05-12T18:03:59.965Z,2.72
2023-05-12T18:06:27.842Z,2.20
2023-05-12T18:08:56.569Z,2.80
2023-05-12T18:11:24.408Z,2.28
2023-05-12T18:13:53.795Z,2.50
2023-05-12T18:16:28.335Z,2.50
2023-05-12T18:18:56.723Z,2.45
2023-05-12T18:21:24.856Z,2.60
2023-05-12T18:23:52.799Z,2.20
2023-05-12T18:26:20.801Z,2.40
2023-05-12T18:28:48.729Z,3.05
2023-05-12T18:31:19.674Z,2.58
2023-05-12T18:33:47.843Z,2.60
2023-05-12T18:36:15.752Z,2.80
2023-05-12T18:38:43.655Z,2.92
2023-05-12T18:41:12.759Z,2.35
2023-05-12T18:43:41.867Z,2.47
2023-05-12T18:46:09.887Z,2.70
2023-05-12T18:48:39.099Z,2.95
2023-05-12T18:51:07.120Z,2.47
2023-05-12T18:53:35.228Z,2.65
2023-05-12T18:56:03.535Z,2.90
2023-05-12T18:58:31.312Z,2.90
2023-05-12T19:00:59.293Z,2.88
2023-05-12T19:03:27.325Z,2.58
2023-05-12T19:05:56.503Z,2.20
2023-05-12T19:08:24.281Z,2.75
2023-05-12T19:10:52.116Z,2.20
2023-05-12T19:13:20.170Z,2.47
2023-05-12T19:15:48.099Z,2.70
2023-05-12T19:18:17.217Z,2.35
2023-05-12T19:20:45.091Z,2.70
2023-05-12T19:23:14.328Z,2.72
2023-05-12T19:25:43.551Z,2.65
2023-05-12T19:28:11.970Z,2.65
2023-05-12T19:30:39.805Z,3.00
2023-05-12T19:33:07.802Z,2.88
2023-05-12T19:35:36.228Z,2.85
2023-05-12T19:38:04.282Z,3.00
2023-05-12T19:40:33.543Z,3.03
2023-05-12T19:43:01.979Z,3.45
2023-05-12T19:45:30.084Z,3.10
2023-05-12T19:47:58.235Z,2.72
2023-05-12T19:50:26.410Z,2.90
2023-05-12T19:52:54.252Z,2.70
2023-05-12T19:55:22.366Z,3.08
2023-05-12T19:57:52.783Z,3.00
2023-05-12T20:00:22.176Z,2.85
2023-05-12T20:02:50.451Z,3.38
2023-05-12T20:05:18.577Z,3.13
2023-05-12T20:07:46.391Z,3.53
2023-05-12T20:10:14.154Z,3.20
2023-05-12T20:12:42.123Z,3.15
2023-05-12T20:15:12.352Z,3.28
2023-05-12T20:17:40.156Z,2.88
2023-05-12T20:20:11.405Z,2.85
2023-05-12T20:22:39.288Z,3.30
2023-05-12T20:25:07.853Z,3.33
2023-05-12T20:27:35.630Z,3.20
2023-05-12T20:30:03.467Z,3.33
2023-05-12T20:32:33.470Z,3.20
2023-05-12T20:35:01.469Z,3.13
2023-05-12T20:37:29.257Z,3.20
2023-05-12T20:39:57.094Z,3.85
2023-05-12T20:42:24.948Z,3.08
2023-05-12T20:44:53.785Z,3.55
2023-05-12T20:47:21.605Z,3.38
2023-05-12T20:49:56.015Z,3.65
2023-05-12T20:52:24.726Z,3.35
2023-05-12T20:54:57.932Z,3.10
2023-05-12T20:57:25.762Z,2.95
2023-05-12T20:59:56.706Z,3.38
2023-05-12T21:02:25.128Z,3.47
2023-05-12T21:04:55.217Z,3.05
2023-05-12T21:07:23.179Z,3.40
2023-05-12T21:09:51.015Z,3.33
2023-05-12T21:12:18.771Z,3.35
2023-05-12T21:14:46.590Z,3.90
2023-05-12T21:17:14.825Z,3.58
2023-05-12T21:19:44.020Z,3.33
2023-05-12T21:22:13.267Z,3.28
2023-05-12T21:24:42.035Z,2.78
2023-05-12T21:27:10.017Z,3.38
2023-05-12T21:29:38.189Z,3.17
2023-05-12T21:32:06.883Z,3.50
2023-05-12T21:34:36.111Z,2.83
2023-05-12T21:37:04.084Z,3.10
2023-05-12T21:39:33.215Z,3.10
2023-05-12T21:42:01.115Z,3.28
2023-05-12T21:44:28.866Z,3.15
2023-05-12T21:46:58.618Z,3.35
2023-05-12T21:49:26.874Z,2.90
2023-05-12T21:51:55.987Z,3.88
2023-05-12T21:54:23.808Z,3.10
2023-05-12T21:56:53.184Z,2.88
2023-05-12T21:59:20.948Z,3.22
2023-05-12T22:01:48.834Z,3.58
2023-05-12T22:04:16.706Z,3.63
2023-05-12T22:06:44.555Z,3.10
2023-05-12T22:09:12.830Z,3.53
2023-05-12T22:11:40.804Z,3.15
2023-05-12T22:14:10.249Z,3.30
2023-05-12T22:16:41.836Z,3.33
2023-05-12T22:19:10.628Z,3.33
2023-05-12T22:21:38.732Z,3.42
2023-05-12T22:24:07.158Z,3.15
2023-05-12T22:26:34.993Z,3.60
2023-05-12T22:29:02.895Z,3.10
2023-05-12T22:31:32.164Z,3.45
2023-05-12T22:34:00.165Z,3.38
2023-05-12T22:36:27.986Z,3.30
2023-05-12T22:38:55.772Z,3.20
2023-05-12T22:41:23.581Z,3.40
2023-05-12T22:43:51.545Z,3.63
2023-05-12T22:46:19.384Z,3.22
2023-05-12T22:48:48.550Z,3.42
2023-05-12T22:51:16.328Z,3.63
2023-05-12T22:53:44.130Z,3.17
2023-05-12T22:56:11.921Z,3.08
2023-05-12T22:58:39.710Z,3.55
2023-05-12T23:01:07.539Z,3.38
2023-05-12T23:03:35.450Z,3.80
2023-05-12T23:06:04.806Z,3.42
2023-05-12T23:08:32.611Z,3.33
2023-05-12T23:11:00.672Z,3.60
2023-05-12T23:13:28.473Z,3.80
2023-05-12T23:15:56.510Z,3.50
2023-05-12T23:18:24.447Z,3.80
2023-05-12T23:20:52.326Z,4.53
2023-05-12T23:23:21.494Z,3.85
2023-05-12T23:25:49.470Z,3.83
2023-05-12T23:28:17.294Z,3.80
2023-05-12T23:30:45.087Z,3.85
2023-05-12T23:33:13.037Z,3.78
2023-05-12T23:35:40.841Z,3.97
2023-05-12T23:38:08.659Z,4.40
2023-05-12T23:40:39.324Z,4.30
2023-05-12T23:43:07.222Z,4.55
2023-05-12T23:45:35.491Z,4.50
2023-05-12T23:48:03.350Z,3.70
2023-05-12T23:50:31.166Z,4.28
2023-05-12T23:52:59.213Z,4.38
2023-05-12T23:55:27.008Z,4.47
2023-05-12T23:57:56.130Z,4.20
